sensor_id;sensor_type;location;lat;lon;timestamp;pressure;altitude;pressure_sealevel;temperature;humidity
46846;BME280;33947;46.804;134.252;2023-02-19T00:02:54;100732.69;;;-15.14;54.01
46846;BME280;33947;46.804;134.252;2023-02-19T00:06:02;100734.25;;;-14.60;52.56
46846;BME280;33947;46.804;134.252;2023-02-19T00:09:11;100714.41;;;-14.30;52.55
46846;BME280;33947;46.804;134.252;2023-02-19T00:12:17;100697.09;;;-14.34;51.73
46846;BME280;33947;46.804;134.252;2023-02-19T00:15:22;100734.38;;;-14.36;53.28
46846;BME280;33947;46.804;134.252;2023-02-19T00:18:26;100717.81;;;-14.75;54.53
46846;BME280;33947;46.804;134.252;2023-02-19T00:21:31;100726.28;;;-14.30;56.09
46846;BME280;33947;46.804;134.252;2023-02-19T00:24:36;100749.19;;;-13.50;55.31
46846;BME280;33947;46.804;134.252;2023-02-19T00:27:40;100736.66;;;-12.86;52.80
46846;BME280;33947;46.804;134.252;2023-02-19T00:30:44;100740.38;;;-12.57;51.22
46846;BME280;33947;46.804;134.252;2023-02-19T00:33:51;100743.09;;;-11.64;52.27
46846;BME280;33947;46.804;134.252;2023-02-19T00:36:57;100730.75;;;-11.56;52.76
46846;BME280;33947;46.804;134.252;2023-02-19T00:40:01;100742.75;;;-10.88;50.09
46846;BME280;33947;46.804;134.252;2023-02-19T00:43:05;100736.88;;;-11.27;50.46
46846;BME280;33947;46.804;134.252;2023-02-19T00:46:10;100734.13;;;-11.17;50.14
46846;BME280;33947;46.804;134.252;2023-02-19T00:49:20;100724.44;;;-11.08;52.01
46846;BME280;33947;46.804;134.252;2023-02-19T00:52:25;100713.41;;;-10.06;49.34
46846;BME280;33947;46.804;134.252;2023-02-19T00:55:29;100732.47;;;-9.27;48.60
46846;BME280;33947;46.804;134.252;2023-02-19T00:58:34;100729.28;;;-9.83;48.02
46846;BME280;33947;46.804;134.252;2023-02-19T01:01:42;100729.13;;;-9.86;50.10
46846;BME280;33947;46.804;134.252;2023-02-19T01:04:50;100724.41;;;-9.94;49.07
46846;BME280;33947;46.804;134.252;2023-02-19T01:07:54;100656.63;;;-9.81;48.96
46846;BME280;33947;46.804;134.252;2023-02-19T01:10:59;100691.53;;;-9.99;50.92
46846;BME280;33947;46.804;134.252;2023-02-19T01:14:03;100662.00;;;-9.91;49.18
46846;BME280;33947;46.804;134.252;2023-02-19T01:17:08;100704.53;;;-9.36;48.62
46846;BME280;33947;46.804;134.252;2023-02-19T01:20:12;100702.34;;;-9.75;50.30
46846;BME280;33947;46.804;134.252;2023-02-19T01:23:17;100699.03;;;-8.96;49.74
46846;BME280;33947;46.804;134.252;2023-02-19T01:26:23;100673.31;;;-8.63;46.95
46846;BME280;33947;46.804;134.252;2023-02-19T01:29:28;100710.13;;;-8.47;48.42
46846;BME280;33947;46.804;134.252;2023-02-19T01:32:33;100685.06;;;-9.16;48.11
46846;BME280;33947;46.804;134.252;2023-02-19T01:35:38;100688.34;;;-8.87;48.37
46846;BME280;33947;46.804;134.252;2023-02-19T01:38:43;100686.53;;;-9.05;48.65
46846;BME280;33947;46.804;134.252;2023-02-19T01:41:49;100697.25;;;-8.80;49.33
46846;BME280;33947;46.804;134.252;2023-02-19T01:45:23;100700.38;;;-9.34;49.15
46846;BME280;33947;46.804;134.252;2023-02-19T01:48:35;100692.53;;;-8.89;48.51
46846;BME280;33947;46.804;134.252;2023-02-19T01:51:45;100693.28;;;-8.90;49.29
46846;BME280;33947;46.804;134.252;2023-02-19T01:54:53;100681.53;;;-9.18;49.50
46846;BME280;33947;46.804;134.252;2023-02-19T01:58:01;100692.53;;;-9.36;49.77
46846;BME280;33947;46.804;134.252;2023-02-19T02:01:07;100696.94;;;-9.95;50.60
46846;BME280;33947;46.804;134.252;2023-02-19T02:04:13;100682.50;;;-9.78;51.20
46846;BME280;33947;46.804;134.252;2023-02-19T02:07:18;100679.13;;;-9.15;50.76
46846;BME280;33947;46.804;134.252;2023-02-19T02:10:42;100677.88;;;-8.06;48.10
46846;BME280;33947;46.804;134.252;2023-02-19T02:13:47;100606.34;;;-8.28;48.46
46846;BME280;33947;46.804;134.252;2023-02-19T02:17:12;100674.78;;;-7.82;47.61
46846;BME280;33947;46.804;134.252;2023-02-19T02:21:31;100666.28;;;-7.79;48.79
46846;BME280;33947;46.804;134.252;2023-02-19T02:34:18;100656.63;;;-7.11;48.79
46846;BME280;33947;46.804;134.252;2023-02-19T02:37:27;100661.94;;;-6.70;48.79
46846;BME280;33947;46.804;134.252;2023-02-19T02:40:36;100656.06;;;-6.86;49.85
46846;BME280;33947;46.804;134.252;2023-02-19T02:43:42;100633.34;;;-6.34;48.92
46846;BME280;33947;46.804;134.252;2023-02-19T02:46:46;100643.28;;;-6.02;48.34
46846;BME280;33947;46.804;134.252;2023-02-19T02:49:50;100634.56;;;-6.26;48.33
46846;BME280;33947;46.804;134.252;2023-02-19T02:53:17;100587.66;;;-6.14;48.26
46846;BME280;33947;46.804;134.252;2023-02-19T02:56:43;100623.59;;;-6.20;48.18
46846;BME280;33947;46.804;134.252;2023-02-19T02:59:49;100616.47;;;-6.26;48.97
46846;BME280;33947;46.804;134.252;2023-02-19T03:02:56;100622.59;;;-6.02;49.22
46846;BME280;33947;46.804;134.252;2023-02-19T03:06:06;100616.53;;;-5.82;49.23
46846;BME280;33947;46.804;134.252;2023-02-19T03:09:25;100625.38;;;-6.19;47.36
46846;BME280;33947;46.804;134.252;2023-02-19T03:12:35;100605.13;;;-5.64;48.99
46846;BME280;33947;46.804;134.252;2023-02-19T03:16:09;100610.44;;;-5.15;48.08
46846;BME280;33947;46.804;134.252;2023-02-19T03:22:53;100511.59;;;-6.19;48.51
46846;BME280;33947;46.804;134.252;2023-02-19T03:26:03;100597.06;;;-5.72;48.49
46846;BME280;33947;46.804;134.252;2023-02-19T03:29:36;100587.47;;;-4.83;46.27
46846;BME280;33947;46.804;134.252;2023-02-19T03:33:14;100571.75;;;-4.88;45.81
46846;BME280;33947;46.804;134.252;2023-02-19T03:36:16;100559.56;;;-5.60;46.28
46846;BME280;33947;46.804;134.252;2023-02-19T03:39:30;100562.88;;;-6.08;47.97
46846;BME280;33947;46.804;134.252;2023-02-19T03:42:41;100574.53;;;-6.18;48.47
46846;BME280;33947;46.804;134.252;2023-02-19T03:46:17;100540.72;;;-5.79;48.31
46846;BME280;33947;46.804;134.252;2023-02-19T03:49:45;100555.94;;;-5.18;47.07
46846;BME280;33947;46.804;134.252;2023-02-19T03:53:11;100547.22;;;-5.89;46.89
46846;BME280;33947;46.804;134.252;2023-02-19T04:00:07;100522.31;;;-5.64;48.58
46846;BME280;33947;46.804;134.252;2023-02-19T04:03:41;100523.03;;;-5.45;47.15
46846;BME280;33947;46.804;134.252;2023-02-19T04:06:57;100526.59;;;-5.42;47.84
46846;BME280;33947;46.804;134.252;2023-02-19T04:10:06;100526.59;;;-4.95;47.16
46846;BME280;33947;46.804;134.252;2023-02-19T04:13:23;100531.44;;;-5.51;48.66
46846;BME280;33947;46.804;134.252;2023-02-19T04:16:29;100522.69;;;-5.77;48.35
46846;BME280;33947;46.804;134.252;2023-02-19T04:19:37;100535.50;;;-5.35;48.96
46846;BME280;33947;46.804;134.252;2023-02-19T04:22:46;100529.53;;;-5.32;48.11
46846;BME280;33947;46.804;134.252;2023-02-19T04:25:56;100525.25;;;-5.32;48.02
46846;BME280;33947;46.804;134.252;2023-02-19T04:29:03;100517.66;;;-5.27;48.11
46846;BME280;33947;46.804;134.252;2023-02-19T04:32:10;100519.88;;;-4.89;46.98
46846;BME280;33947;46.804;134.252;2023-02-19T04:35:15;100515.84;;;-5.75;47.91
46846;BME280;33947;46.804;134.252;2023-02-19T04:38:19;100515.75;;;-6.01;49.16
46846;BME280;33947;46.804;134.252;2023-02-19T04:41:23;100514.69;;;-5.61;48.48
46846;BME280;33947;46.804;134.252;2023-02-19T04:44:27;100502.25;;;-5.24;47.76
46846;BME280;33947;46.804;134.252;2023-02-19T04:47:32;100498.53;;;-5.31;47.11
46846;BME280;33947;46.804;134.252;2023-02-19T04:50:39;100494.63;;;-5.19;48.13
46846;BME280;33947;46.804;134.252;2023-02-19T04:53:43;100512.94;;;-4.39;46.25
46846;BME280;33947;46.804;134.252;2023-02-19T04:56:48;100507.16;;;-4.31;43.74
46846;BME280;33947;46.804;134.252;2023-02-19T04:59:53;100496.34;;;-4.96;46.88
46846;BME280;33947;46.804;134.252;2023-02-19T05:02:57;100507.13;;;-4.83;47.19
46846;BME280;33947;46.804;134.252;2023-02-19T05:06:07;100504.84;;;-5.00;46.87
46846;BME280;33947;46.804;134.252;2023-02-19T05:09:11;100510.16;;;-4.45;45.67
46846;BME280;33947;46.804;134.252;2023-02-19T05:12:16;100509.03;;;-4.27;46.10
46846;BME280;33947;46.804;134.252;2023-02-19T05:15:20;100508.09;;;-4.29;45.84
46846;BME280;33947;46.804;134.252;2023-02-19T05:18:25;100507.88;;;-4.61;45.32
46846;BME280;33947;46.804;134.252;2023-02-19T05:21:30;100518.28;;;-4.34;44.94
46846;BME280;33947;46.804;134.252;2023-02-19T05:24:35;100514.75;;;-4.10;43.69
46846;BME280;33947;46.804;134.252;2023-02-19T05:27:39;100510.56;;;-4.58;43.16
46846;BME280;33947;46.804;134.252;2023-02-19T05:30:47;100521.41;;;-4.70;44.53
46846;BME280;33947;46.804;134.252;2023-02-19T05:33:54;100502.81;;;-4.58;45.12
46846;BME280;33947;46.804;134.252;2023-02-19T05:36:59;100513.88;;;-5.13;42.81
46846;BME280;33947;46.804;134.252;2023-02-19T05:40:03;100531.88;;;-4.91;44.85
46846;BME280;33947;46.804;134.252;2023-02-19T05:43:08;100473.38;;;-5.58;44.94
46846;BME280;33947;46.804;134.252;2023-02-19T05:46:15;100535.09;;;-5.23;44.31
46846;BME280;33947;46.804;134.252;2023-02-19T05:49:20;100517.66;;;-5.27;44.53
46846;BME280;33947;46.804;134.252;2023-02-19T05:52:25;100529.91;;;-5.23;44.04
46846;BME280;33947;46.804;134.252;2023-02-19T05:55:33;100521.97;;;-5.73;43.05
46846;BME280;33947;46.804;134.252;2023-02-19T05:58:38;100537.84;;;-6.31;44.09
46846;BME280;33947;46.804;134.252;2023-02-19T06:01:43;100544.28;;;-6.62;45.08
46846;BME280;33947;46.804;134.252;2023-02-19T06:04:49;100530.25;;;-6.88;45.29
46846;BME280;33947;46.804;134.252;2023-02-19T06:07:54;100525.63;;;-7.15;44.50
46846;BME280;33947;46.804;134.252;2023-02-19T06:10:59;100493.91;;;-7.32;44.31
46846;BME280;33947;46.804;134.252;2023-02-19T06:14:04;100530.72;;;-6.97;44.78
46846;BME280;33947;46.804;134.252;2023-02-19T06:17:09;100530.75;;;-7.17;43.61
46846;BME280;33947;46.804;134.252;2023-02-19T06:20:14;100552.41;;;-7.13;45.02
46846;BME280;33947;46.804;134.252;2023-02-19T06:23:19;100529.84;;;-6.78;45.70
46846;BME280;33947;46.804;134.252;2023-02-19T06:26:24;100545.72;;;-6.69;44.52
46846;BME280;33947;46.804;134.252;2023-02-19T06:29:28;100552.44;;;-6.52;44.89
46846;BME280;33947;46.804;134.252;2023-02-19T06:32:35;100558.59;;;-6.90;45.00
46846;BME280;33947;46.804;134.252;2023-02-19T06:35:40;100559.84;;;-6.81;45.16
46846;BME280;33947;46.804;134.252;2023-02-19T06:38:45;100559.28;;;-6.94;45.10
46846;BME280;33947;46.804;134.252;2023-02-19T06:41:49;100561.91;;;-6.73;43.58
46846;BME280;33947;46.804;134.252;2023-02-19T06:44:53;100556.81;;;-6.91;44.68
46846;BME280;33947;46.804;134.252;2023-02-19T06:47:57;100557.28;;;-7.19;44.73
46846;BME280;33947;46.804;134.252;2023-02-19T06:51:02;100540.84;;;-6.82;44.90
46846;BME280;33947;46.804;134.252;2023-02-19T06:54:07;100281.06;;;-8.22;44.36
46846;BME280;33947;46.804;134.252;2023-02-19T06:57:11;100503.97;;;-6.99;43.62
46846;BME280;33947;46.804;134.252;2023-02-19T07:00:16;100560.41;;;-7.07;44.23
46846;BME280;33947;46.804;134.252;2023-02-19T07:03:22;100560.22;;;-7.12;43.63
46846;BME280;33947;46.804;134.252;2023-02-19T07:06:29;100557.09;;;-6.85;43.24
46846;BME280;33947;46.804;134.252;2023-02-19T07:09:33;100538.22;;;-7.03;43.86
46846;BME280;33947;46.804;134.252;2023-02-19T07:12:38;100574.91;;;-7.48;44.55
46846;BME280;33947;46.804;134.252;2023-02-19T07:15:42;100577.75;;;-7.04;44.85
46846;BME280;33947;46.804;134.252;2023-02-19T07:18:47;100573.06;;;-7.33;44.10
46846;BME280;33947;46.804;134.252;2023-02-19T07:21:52;100565.78;;;-7.96;44.56
46846;BME280;33947;46.804;134.252;2023-02-19T07:24:57;100572.56;;;-8.16;45.53
46846;BME280;33947;46.804;134.252;2023-02-19T07:28:01;100582.88;;;-7.98;44.65
46846;BME280;33947;46.804;134.252;2023-02-19T07:31:06;100585.34;;;-8.18;44.40
46846;BME280;33947;46.804;134.252;2023-02-19T07:34:10;100568.09;;;-8.37;44.78
46846;BME280;33947;46.804;134.252;2023-02-19T07:37:15;100567.38;;;-8.52;44.97
46846;BME280;33947;46.804;134.252;2023-02-19T07:40:19;100559.88;;;-8.30;44.12
46846;BME280;33947;46.804;134.252;2023-02-19T07:43:25;100523.03;;;-8.63;44.83
46846;BME280;33947;46.804;134.252;2023-02-19T07:46:30;100587.94;;;-8.18;44.33
46846;BME280;33947;46.804;134.252;2023-02-19T07:49:35;100532.97;;;-8.71;44.91
46846;BME280;33947;46.804;134.252;2023-02-19T07:52:39;100592.75;;;-8.07;45.48
46846;BME280;33947;46.804;134.252;2023-02-19T07:55:44;100574.56;;;-8.10;45.01
46846;BME280;33947;46.804;134.252;2023-02-19T07:58:48;100596.00;;;-7.93;44.82
46846;BME280;33947;46.804;134.252;2023-02-19T08:01:53;100510.41;;;-8.59;44.35
46846;BME280;33947;46.804;134.252;2023-02-19T08:05:16;100536.25;;;-8.90;45.17
46846;BME280;33947;46.804;134.252;2023-02-19T08:08:21;100595.00;;;-8.32;45.06
46846;BME280;33947;46.804;134.252;2023-02-19T08:11:25;100596.25;;;-8.58;44.75
46846;BME280;33947;46.804;134.252;2023-02-19T08:14:48;100596.25;;;-8.58;45.06
46846;BME280;33947;46.804;134.252;2023-02-19T08:17:52;100572.56;;;-9.02;45.81
46846;BME280;33947;46.804;134.252;2023-02-19T08:20:57;100604.56;;;-8.80;46.18
46846;BME280;33947;46.804;134.252;2023-02-19T08:24:02;100579.56;;;-8.99;45.37
46846;BME280;33947;46.804;134.252;2023-02-19T08:27:07;100584.81;;;-9.30;45.82
46846;BME280;33947;46.804;134.252;2023-02-19T08:30:12;100609.16;;;-9.24;46.27
46846;BME280;33947;46.804;134.252;2023-02-19T08:33:20;100618.09;;;-9.49;46.37
46846;BME280;33947;46.804;134.252;2023-02-19T08:36:28;100582.09;;;-9.96;46.82
46846;BME280;33947;46.804;134.252;2023-02-19T08:39:33;100619.53;;;-9.69;47.74
46846;BME280;33947;46.804;134.252;2023-02-19T08:42:38;100597.66;;;-9.78;47.27
46846;BME280;33947;46.804;134.252;2023-02-19T08:45:44;100616.19;;;-9.83;46.87
46846;BME280;33947;46.804;134.252;2023-02-19T08:48:50;100612.84;;;-10.12;47.85
46846;BME280;33947;46.804;134.252;2023-02-19T08:51:55;100591.69;;;-10.38;48.07
46846;BME280;33947;46.804;134.252;2023-02-19T08:54:59;100638.53;;;-10.27;48.28
46846;BME280;33947;46.804;134.252;2023-02-19T08:58:04;100634.28;;;-10.27;48.10
46846;BME280;33947;46.804;134.252;2023-02-19T09:01:11;100633.31;;;-10.14;48.54
46846;BME280;33947;46.804;134.252;2023-02-19T09:04:16;100632.22;;;-10.33;47.89
46846;BME280;33947;46.804;134.252;2023-02-19T09:07:21;100634.81;;;-10.33;48.17
46846;BME280;33947;46.804;134.252;2023-02-19T09:10:25;100629.06;;;-10.43;48.10
46846;BME280;33947;46.804;134.252;2023-02-19T09:13:30;100651.97;;;-10.32;48.77
46846;BME280;33947;46.804;134.252;2023-02-19T09:16:35;100673.69;;;-10.11;48.56
46846;BME280;33947;46.804;134.252;2023-02-19T09:19:40;100666.00;;;-10.11;47.50
46846;BME280;33947;46.804;134.252;2023-02-19T09:22:44;100652.34;;;-10.25;48.31
46846;BME280;33947;46.804;134.252;2023-02-19T09:25:56;100692.81;;;-10.36;49.34
46846;BME280;33947;46.804;134.252;2023-02-19T09:29:02;100682.13;;;-10.44;48.94
46846;BME280;33947;46.804;134.252;2023-02-19T09:32:07;100636.38;;;-10.65;48.09
46846;BME280;33947;46.804;134.252;2023-02-19T09:35:12;100684.88;;;-10.41;48.93
46846;BME280;33947;46.804;134.252;2023-02-19T09:38:17;100677.84;;;-10.58;49.00
46846;BME280;33947;46.804;134.252;2023-02-19T09:41:29;100684.13;;;-10.53;49.24
46846;BME280;33947;46.804;134.252;2023-02-19T09:44:41;100695.81;;;-10.58;49.25
46846;BME280;33947;46.804;134.252;2023-02-19T09:47:47;100688.91;;;-10.44;49.16
46846;BME280;33947;46.804;134.252;2023-02-19T09:50:52;100683.41;;;-10.51;48.48
46846;BME280;33947;46.804;134.252;2023-02-19T09:53:57;100712.09;;;-10.58;50.13
46846;BME280;33947;46.804;134.252;2023-02-19T09:57:02;100715.25;;;-10.62;49.84
46846;BME280;33947;46.804;134.252;2023-02-19T10:03:22;100727.44;;;-10.73;49.71
46846;BME280;33947;46.804;134.252;2023-02-19T10:06:31;100727.84;;;-10.80;50.25
46846;BME280;33947;46.804;134.252;2023-02-19T10:09:39;100709.13;;;-10.93;50.33
46846;BME280;33947;46.804;134.252;2023-02-19T10:12:49;100705.91;;;-10.75;50.06
46846;BME280;33947;46.804;134.252;2023-02-19T10:15:58;100707.81;;;-10.72;50.10
46846;BME280;33947;46.804;134.252;2023-02-19T10:19:08;100730.13;;;-10.71;50.08
46846;BME280;33947;46.804;134.252;2023-02-19T10:22:15;100723.59;;;-10.80;50.12
46846;BME280;33947;46.804;134.252;2023-02-19T10:25:19;100726.88;;;-10.82;50.79
46846;BME280;33947;46.804;134.252;2023-02-19T10:28:28;100724.78;;;-10.88;50.51
46846;BME280;33947;46.804;134.252;2023-02-19T10:31:33;100710.56;;;-10.83;50.15
46846;BME280;33947;46.804;134.252;2023-02-19T10:34:38;100695.34;;;-11.08;50.61
46846;BME280;33947;46.804;134.252;2023-02-19T10:37:47;100724.00;;;-10.73;50.78
46846;BME280;33947;46.804;134.252;2023-02-19T10:47:19;100731.91;;;-10.84;50.16
46846;BME280;33947;46.804;134.252;2023-02-19T10:50:30;100722.88;;;-11.06;51.12
46846;BME280;33947;46.804;134.252;2023-02-19T10:53:47;100729.84;;;-11.03;50.84
46846;BME280;33947;46.804;134.252;2023-02-19T10:56:51;100707.28;;;-11.22;51.09
46846;BME280;33947;46.804;134.252;2023-02-19T11:00:21;100738.25;;;-11.06;51.46
46846;BME280;33947;46.804;134.252;2023-02-19T11:03:25;100727.00;;;-11.08;51.28
46846;BME280;33947;46.804;134.252;2023-02-19T11:06:30;100729.38;;;-11.24;51.33
46846;BME280;33947;46.804;134.252;2023-02-19T11:09:42;100737.59;;;-11.30;51.67
46846;BME280;33947;46.804;134.252;2023-02-19T11:12:49;100741.81;;;-11.30;51.82
46846;BME280;33947;46.804;134.252;2023-02-19T11:15:55;100736.97;;;-11.39;52.06
46846;BME280;33947;46.804;134.252;2023-02-19T11:19:00;100735.00;;;-11.43;52.60
46846;BME280;33947;46.804;134.252;2023-02-19T11:22:29;100744.28;;;-11.45;52.71
46846;BME280;33947;46.804;134.252;2023-02-19T11:25:34;100742.88;;;-11.67;52.93
46846;BME280;33947;46.804;134.252;2023-02-19T11:28:39;100737.63;;;-11.82;53.56
46846;BME280;33947;46.804;134.252;2023-02-19T11:31:44;100743.81;;;-11.92;53.96
46846;BME280;33947;46.804;134.252;2023-02-19T11:34:51;100742.13;;;-12.05;53.73
46846;BME280;33947;46.804;134.252;2023-02-19T11:38:00;100745.81;;;-12.01;53.90
46846;BME280;33947;46.804;134.252;2023-02-19T11:48:37;100729.44;;;-12.54;54.14
46846;BME280;33947;46.804;134.252;2023-02-19T11:58:42;100763.69;;;-12.89;55.72
46846;BME280;33947;46.804;134.252;2023-02-19T12:05:22;100760.59;;;-12.97;55.18
46846;BME280;33947;46.804;134.252;2023-02-19T12:08:40;100755.28;;;-13.24;56.11
46846;BME280;33947;46.804;134.252;2023-02-19T12:39:16;100775.00;;;-14.27;56.38
46846;BME280;33947;46.804;134.252;2023-02-19T12:43:00;100780.38;;;-14.46;56.71
46846;BME280;33947;46.804;134.252;2023-02-19T12:46:21;100782.84;;;-14.36;57.22
46846;BME280;33947;46.804;134.252;2023-02-19T12:49:35;100785.88;;;-14.52;56.38
46846;BME280;33947;46.804;134.252;2023-02-19T12:52:42;100784.03;;;-14.87;56.80
46846;BME280;33947;46.804;134.252;2023-02-19T12:55:49;100792.13;;;-14.93;57.25
46846;BME280;33947;46.804;134.252;2023-02-19T12:59:02;100779.13;;;-14.51;56.29
46846;BME280;33947;46.804;134.252;2023-02-19T13:09:17;100773.09;;;-15.19;57.35
46846;BME280;33947;46.804;134.252;2023-02-19T13:12:29;100796.00;;;-15.19;57.40
46846;BME280;33947;46.804;134.252;2023-02-19T13:15:41;100805.09;;;-14.90;57.25
46846;BME280;33947;46.804;134.252;2023-02-19T13:18:57;100804.34;;;-14.89;56.30
46846;BME280;33947;46.804;134.252;2023-02-19T13:22:13;100803.09;;;-15.04;56.34
46846;BME280;33947;46.804;134.252;2023-02-19T13:36:26;100744.75;;;-15.44;55.33
46846;BME280;33947;46.804;134.252;2023-02-19T13:39:33;100800.44;;;-15.16;55.40
46846;BME280;33947;46.804;134.252;2023-02-19T13:42:37;100801.59;;;-15.76;55.92
46846;BME280;33947;46.804;134.252;2023-02-19T13:45:45;100811.03;;;-15.96;56.39
46846;BME280;33947;46.804;134.252;2023-02-19T14:05:09;100805.03;;;-15.86;55.75
46846;BME280;33947;46.804;134.252;2023-02-19T14:08:53;100820.44;;;-15.74;55.23
46846;BME280;33947;46.804;134.252;2023-02-19T14:15:42;100817.81;;;-16.57;56.30
46846;BME280;33947;46.804;134.252;2023-02-19T14:18:52;100754.41;;;-16.95;57.05
46846;BME280;33947;46.804;134.252;2023-02-19T14:21:58;100808.06;;;-16.82;57.57
46846;BME280;33947;46.804;134.252;2023-02-19T14:25:13;100805.75;;;-16.89;57.46
46846;BME280;33947;46.804;134.252;2023-02-19T14:28:32;100805.19;;;-16.66;57.51
46846;BME280;33947;46.804;134.252;2023-02-19T14:31:39;100828.28;;;-16.33;56.23
46846;BME280;33947;46.804;134.252;2023-02-19T14:34:47;100772.03;;;-17.07;55.63
46846;BME280;33947;46.804;134.252;2023-02-19T14:37:54;100823.63;;;-17.08;56.61
46846;BME280;33947;46.804;134.252;2023-02-19T14:41:00;100762.66;;;-17.38;56.70
46846;BME280;33947;46.804;134.252;2023-02-19T14:44:11;100822.47;;;-17.31;57.26
46846;BME280;33947;46.804;134.252;2023-02-19T14:47:19;100841.13;;;-17.11;57.75
46846;BME280;33947;46.804;134.252;2023-02-19T14:50:29;100836.25;;;-16.99;56.81
46846;BME280;33947;46.804;134.252;2023-02-19T14:53:38;100842.47;;;-16.85;56.38
46846;BME280;33947;46.804;134.252;2023-02-19T14:56:51;100840.78;;;-16.95;56.41
46846;BME280;33947;46.804;134.252;2023-02-19T14:59:59;100840.03;;;-16.94;55.46
46846;BME280;33947;46.804;134.252;2023-02-19T15:03:30;100855.72;;;-17.09;55.42
46846;BME280;33947;46.804;134.252;2023-02-19T15:06:35;100857.88;;;-17.33;55.80
46846;BME280;33947;46.804;134.252;2023-02-19T15:09:48;100830.69;;;-17.91;56.73
46846;BME280;33947;46.804;134.252;2023-02-19T15:12:59;100851.66;;;-17.83;57.53
46846;BME280;33947;46.804;134.252;2023-02-19T15:16:04;100864.25;;;-17.94;58.25
46846;BME280;33947;46.804;134.252;2023-02-19T15:19:11;100861.94;;;-18.01;58.60
46846;BME280;33947;46.804;134.252;2023-02-19T15:22:21;100867.50;;;-17.86;58.43
46846;BME280;33947;46.804;134.252;2023-02-19T15:25:34;100859.91;;;-17.86;58.68
46846;BME280;33947;46.804;134.252;2023-02-19T15:28:39;100862.81;;;-18.00;58.17
46846;BME280;33947;46.804;134.252;2023-02-19T15:31:55;100857.91;;;-17.80;58.27
46846;BME280;33947;46.804;134.252;2023-02-19T15:35:02;100859.75;;;-17.87;57.77
46846;BME280;33947;46.804;134.252;2023-02-19T15:38:08;100838.50;;;-17.98;57.98
46846;BME280;33947;46.804;134.252;2023-02-19T15:41:20;100872.47;;;-17.68;56.73
46846;BME280;33947;46.804;134.252;2023-02-19T15:44:48;100866.09;;;-17.73;55.77
46846;BME280;33947;46.804;134.252;2023-02-19T15:48:11;100868.38;;;-18.05;56.90
46846;BME280;33947;46.804;134.252;2023-02-19T15:51:26;100868.81;;;-17.81;57.12
46846;BME280;33947;46.804;134.252;2023-02-19T15:58:41;100812.44;;;-18.71;58.19
46846;BME280;33947;46.804;134.252;2023-02-19T16:01:48;100865.09;;;-18.40;58.20
46846;BME280;33947;46.804;134.252;2023-02-19T16:04:53;100839.50;;;-18.15;56.72
46846;BME280;33947;46.804;134.252;2023-02-19T16:08:14;100835.81;;;-18.65;56.00
46846;BME280;33947;46.804;134.252;2023-02-19T16:14:36;100867.84;;;-18.65;56.60
46846;BME280;33947;46.804;134.252;2023-02-19T16:17:42;100871.50;;;-18.89;55.65
46846;BME280;33947;46.804;134.252;2023-02-19T16:20:48;100870.00;;;-18.96;55.98
46846;BME280;33947;46.804;134.252;2023-02-19T16:24:00;100863.78;;;-19.17;56.73
46846;BME280;33947;46.804;134.252;2023-02-19T16:27:07;100875.72;;;-19.25;56.62
46846;BME280;33947;46.804;134.252;2023-02-19T16:36:40;100891.94;;;-19.05;56.78
46846;BME280;33947;46.804;134.252;2023-02-19T16:39:46;100814.97;;;-19.87;56.51
46846;BME280;33947;46.804;134.252;2023-02-19T16:46:18;100908.78;;;-19.41;57.55
46846;BME280;33947;46.804;134.252;2023-02-19T16:49:23;100890.25;;;-19.84;56.64
46846;BME280;33947;46.804;134.252;2023-02-19T16:52:28;100894.72;;;-19.82;57.10
46846;BME280;33947;46.804;134.252;2023-02-19T16:55:33;100905.28;;;-19.86;56.78
46846;BME280;33947;46.804;134.252;2023-02-19T16:58:37;100906.66;;;-19.54;57.49
46846;BME280;33947;46.804;134.252;2023-02-19T17:01:42;100908.94;;;-19.31;55.83
46846;BME280;33947;46.804;134.252;2023-02-19T17:04:47;100839.09;;;-19.82;55.94
46846;BME280;33947;46.804;134.252;2023-02-19T17:07:52;100900.25;;;-19.51;56.36
46846;BME280;33947;46.804;134.252;2023-02-19T17:10:57;100910.53;;;-19.58;55.07
46846;BME280;33947;46.804;134.252;2023-02-19T17:14:02;100885.06;;;-19.51;55.92
46846;BME280;33947;46.804;134.252;2023-02-19T17:17:06;100899.53;;;-19.14;55.35
46846;BME280;33947;46.804;134.252;2023-02-19T17:20:26;100905.66;;;-19.47;54.76
46846;BME280;33947;46.804;134.252;2023-02-19T17:23:32;100901.53;;;-19.89;54.88
46846;BME280;33947;46.804;134.252;2023-02-19T17:26:36;100893.50;;;-20.36;56.00
46846;BME280;33947;46.804;134.252;2023-02-19T17:29:41;100898.66;;;-20.19;55.84
46846;BME280;33947;46.804;134.252;2023-02-19T17:32:45;100913.13;;;-20.00;55.62
46846;BME280;33947;46.804;134.252;2023-02-19T17:35:50;100916.25;;;-19.94;55.82
46846;BME280;33947;46.804;134.252;2023-02-19T17:38:54;100919.13;;;-20.25;55.43
46846;BME280;33947;46.804;134.252;2023-02-19T17:41:58;100914.16;;;-20.65;55.31
46846;BME280;33947;46.804;134.252;2023-02-19T17:45:03;100916.91;;;-20.55;56.01
46846;BME280;33947;46.804;134.252;2023-02-19T17:48:11;100916.72;;;-20.57;56.81
46846;BME280;33947;46.804;134.252;2023-02-19T17:51:16;100920.19;;;-20.47;56.14
46846;BME280;33947;46.804;134.252;2023-02-19T17:54:20;100895.16;;;-20.95;56.04
46846;BME280;33947;46.804;134.252;2023-02-19T17:57:24;100914.19;;;-20.90;56.25
46846;BME280;33947;46.804;134.252;2023-02-19T18:00:35;100928.19;;;-20.52;55.70
46846;BME280;33947;46.804;134.252;2023-02-19T18:03:40;100867.63;;;-20.76;55.34